Thunder radar more information blitzortung!


Löydät sääaseman tiedot myös:

European Weather Network

Finland Weather Exchange

Weather Underground

AWEKAS



Weather Underground säähistoriasivu

Päivittäin yhteenveto Heinäkuu 13, 2017 Yksiköt:  Metriset    Englantilaiset   Molemmat
« Edellinen Päivä
Seuraava Päivä »
Päivittäin Viikoittain Kuukausittain Vuosittain Mukautettu
  Korkea: Matala: Keskiarvo:
Lämpötila: -17.8 °C -11.9 °C -10.1 °C
Kastepiste: -17.8 °C -13 °C -11.9 °C
Kosteus: Humidity % 64 % 81 %
Tuulen nopeus: 0 km/h 0 km/h 5 km/h
Tuulenpuuska: 0 km/h - -
Tuuli:- - SSW
Ilmanpaine: 0 hPa 33788.9 hPa -
Sade: 0 mm    
Historical Graphs
 
 
Taulukkotiedot Heinäkuu 13, 2017
Aika Lämpötila Kastepiste Ilmanpaine Tuuli Tuulen nopeus Tuulenpuuska Kosteus Sademäärä (tunneittain)
-17.8 °C -17.8 °C 0 hPa Calm     Humidity % 0 mm
00:00 -10.1 °C -11 °C 33799.1 hPa Calm     90 % 0 mm
00:15 -10.3 °C -11.1 °C 33799.1 hPa Calm     91 % 0 mm
00:30 -10.5 °C -11.4 °C 33799.1 hPa Calm     90 % 0 mm
00:45 -10.7 °C -11.4 °C 33788.9 hPa Calm     92 % 0 mm
01:00 -10.9 °C -11.5 °C 33788.9 hPa Calm     93 % 0 mm
01:15 -11.1 °C -11.7 °C 33788.9 hPa Calm     93 % 0 mm
01:30 -11.2 °C -11.8 °C 33788.9 hPa Calm     93 % 0 mm
01:45 -11.4 °C -12 °C 33799.1 hPa Calm     93 % 0 mm
02:00 -11.7 °C -12.3 °C 33799.1 hPa Calm     93 % 0 mm
02:15 -11.8 °C -12.3 °C 33799.1 hPa Calm     94 % 0 mm
02:30 -11.9 °C -12.4 °C 33799.1 hPa Calm     94 % 0 mm
02:45 -11.8 °C -12.2 °C 33799.1 hPa Calm     95 % 0 mm
03:00 -11.6 °C -12 °C 33799.1 hPa Calm     96 % 0 mm
03:15 -11.4 °C -11.8 °C 33799.1 hPa Calm     96 % 0 mm
03:30 -11.3 °C -11.6 °C 33799.1 hPa Calm     96 % 0 mm
03:45 -11.2 °C -11.5 °C 33799.1 hPa Calm     96 % 0 mm
04:00 -10.9 °C -11.3 °C 33799.1 hPa Calm     96 % 0 mm
04:15 -10.8 °C -11.2 °C 33799.1 hPa Calm     96 % 0 mm
04:30 -10.8 °C -11.2 °C 33809.2 hPa Calm     96 % 0 mm
04:45 -10.7 °C -11.1 °C 33809.2 hPa Calm     96 % 0 mm
05:00 -10.7 °C -11 °C 33799.1 hPa Calm     96 % 0 mm
05:15 -10.6 °C -10.9 °C 33799.1 hPa Calm     96 % 0 mm
05:30 -10.6 °C -10.9 °C 33809.2 hPa Calm     96 % 0 mm
05:45 -10.5 °C -10.9 °C 33809.2 hPa Calm     95 % 0 mm
06:00 -10.4 °C -10.7 °C 33809.2 hPa Calm     96 % 0 mm
06:15 -10.2 °C -10.7 °C 33809.2 hPa Calm     95 % 0 mm
06:30 -10.2 °C -10.6 °C 33822.8 hPa Calm     95 % 0 mm
06:45 -10 °C -10.4 °C 33822.8 hPa Calm   7.7 km/h 95 % 0 mm
07:00 -9.9 °C -10.4 °C 33822.8 hPa Calm     94 % 0 mm
07:15 -9.8 °C -10.3 °C 33822.8 hPa SW 2.6 km/h 10.3 km/h 95 % 0 mm
07:30 -9.8 °C -10.4 °C 33822.8 hPa South 2.6 km/h 12.9 km/h 94 % 0 mm
07:45 -9.8 °C -10.4 °C 33822.8 hPa South 2.6 km/h 12.9 km/h 93 % 0 mm
08:00 -9.7 °C -10.4 °C 33822.8 hPa SSW 2.6 km/h 7.7 km/h 92 % 0 mm
08:15 -9.7 °C -10.4 °C 33822.8 hPa SW 5.1 km/h 12.9 km/h 91 % 0 mm
08:30 -9.6 °C -10.4 °C 33832.9 hPa SSW 2.6 km/h 12.9 km/h 91 % 0 mm
08:45 -9.7 °C -10.7 °C 33832.9 hPa SW 5.1 km/h 15.6 km/h 89 % 0 mm
09:00 -9.7 °C -10.8 °C 33843.1 hPa SSW 7.7 km/h 18.2 km/h 88 % 0 mm
09:15 -9.6 °C -10.7 °C 33843.1 hPa SW 2.6 km/h 20.8 km/h 87 % 0 mm
09:30 -9.3 °C -10.7 °C 33843.1 hPa SSW 5.1 km/h 20.8 km/h 85 % 0 mm
09:45 -9.5 °C -11.1 °C 33843.1 hPa SSW 10.3 km/h 25.9 km/h 83 % 0 mm
10:00 -9.4 °C -11.1 °C 33843.1 hPa SSW 10.3 km/h 25.9 km/h 82 % 0 mm
10:15 -9.6 °C -11.3 °C 33856.6 hPa SSW 7.7 km/h 23.3 km/h 82 % 0 mm
10:30 -9.6 °C -11.4 °C 33856.6 hPa SSW 7.7 km/h 23.3 km/h 81 % 0 mm
10:45 -9.5 °C -11.2 °C 33866.8 hPa SSW 5.1 km/h 20.8 km/h 82 % 0 mm
11:00 -9.7 °C -11.4 °C 33866.8 hPa SSW 7.7 km/h 23.3 km/h 81 % 0 mm
11:15 -9.7 °C -11.6 °C 33880.3 hPa SSW 10.3 km/h 23.3 km/h 80 % 0 mm
11:30 -9.6 °C -11.5 °C 33880.3 hPa SSW 5.1 km/h 20.8 km/h 80 % 0 mm
11:45 -9.6 °C -11.7 °C 33880.3 hPa SSW 10.3 km/h 25.9 km/h 78 % 0 mm
12:00 -9.7 °C -11.7 °C 33890.5 hPa SSW 10.3 km/h 28.5 km/h 79 % 0 mm
12:15 -9.6 °C -11.8 °C 33890.5 hPa SSW 12.9 km/h 31.1 km/h 77 % 0 mm
12:30 -9.4 °C -11.7 °C 33890.5 hPa SSW 10.3 km/h 23.3 km/h 76 % 0 mm
12:45 -9.3 °C -11.7 °C 33890.5 hPa SSW 5.1 km/h 23.3 km/h 75 % 0 mm
13:00 -9.2 °C -11.6 °C 33890.5 hPa SSW 10.3 km/h 23.3 km/h 76 % 0 mm
13:15 -9.3 °C -11.8 °C 33890.5 hPa SSW 10.3 km/h 25.9 km/h 75 % 0 mm
13:30 -9.5 °C -12.1 °C 33900.6 hPa SSW 5.1 km/h 25.9 km/h 74 % 0 mm
13:45 -9.6 °C -11.9 °C 33900.6 hPa SW 7.7 km/h 23.3 km/h 76 % 0 mm
14:00 -9.3 °C -12.1 °C 33900.6 hPa SSW 12.9 km/h 31.1 km/h 72 % 0 mm
14:15 -9.3 °C -12.2 °C 33900.6 hPa SSW 7.7 km/h 20.8 km/h 71 % 0 mm
14:30 -9.2 °C -12.3 °C 33900.6 hPa SSW 10.3 km/h 25.9 km/h 69 % 0 mm
14:45 -9.1 °C -12.4 °C 33900.6 hPa SSW 15.6 km/h 28.5 km/h 68 % 0 mm
15:00 -9 °C -12.3 °C 33900.6 hPa SSW 15.6 km/h 36.2 km/h 68 % 0 mm
15:15 -9 °C -12.3 °C 33914.2 hPa SSW 7.7 km/h 25.9 km/h 68 % 0 mm
15:30 -9.2 °C -12.4 °C 33914.2 hPa SSW 10.3 km/h 25.9 km/h 68 % 0 mm
15:45 -8.9 °C -12.5 °C 33914.2 hPa SSW 12.9 km/h 31.1 km/h 66 % 0 mm
16:00 -8.8 °C -12.4 °C 33914.2 hPa SSW 10.3 km/h 28.5 km/h 66 % 0 mm
16:15 -9 °C -12.8 °C 33914.2 hPa SSW 15.6 km/h 31.1 km/h 64 % 0 mm
16:30 -9.2 °C -12.9 °C 33914.2 hPa SSW 12.9 km/h 31.1 km/h 64 % 0 mm
16:45 -9.1 °C -12.7 °C 33924.3 hPa SSW 10.3 km/h 28.5 km/h 65 % 0 mm
17:00 -9.1 °C -12.7 °C 33924.3 hPa SSW 10.3 km/h 25.9 km/h 66 % 0 mm
17:15 -9.2 °C -12.9 °C 33924.3 hPa SSW 7.7 km/h 25.9 km/h 65 % 0 mm
17:30 -9.4 °C -12.6 °C 33924.3 hPa SSW 7.7 km/h 23.3 km/h 69 % 0 mm
17:45 -9.6 °C -12.8 °C 33924.3 hPa SSW 10.3 km/h 28.5 km/h 68 % 0 mm
18:00 -9.7 °C -12.6 °C 33937.9 hPa SSW 7.7 km/h 23.3 km/h 71 % 0 mm
18:15 -9.4 °C -12.4 °C 33937.9 hPa SSW 10.3 km/h 23.3 km/h 70 % 0 mm
18:30 -9.6 °C -12.8 °C 33937.9 hPa SSW 10.3 km/h 28.5 km/h 69 % 0 mm
18:45 -9.8 °C -13 °C 33937.9 hPa SSW 7.7 km/h 23.3 km/h 68 % 0 mm
19:00 -9.7 °C -12.9 °C 33937.9 hPa SSW 7.7 km/h 20.8 km/h 68 % 0 mm
19:15 -9.8 °C -12.8 °C 33937.9 hPa SSW 7.7 km/h 28.5 km/h 70 % 0 mm
19:30 -9.9 °C -12.7 °C 33937.9 hPa SSW 5.1 km/h 15.6 km/h 72 % 0 mm
19:45 -9.9 °C -12.7 °C 33937.9 hPa SSW 5.1 km/h 18.2 km/h 72 % 0 mm
20:00 -9.9 °C -12.7 °C 33937.9 hPa SSW 5.1 km/h 18.2 km/h 72 % 0 mm
20:15 -9.9 °C -12.6 °C 33937.9 hPa SSE 2.6 km/h 12.9 km/h 73 % 0 mm
20:30 -10 °C -12.8 °C 33937.9 hPa South 5.1 km/h 18.2 km/h 72 % 0 mm
20:45 -10.1 °C -12.9 °C 33948 hPa South 7.7 km/h 23.3 km/h 72 % 0 mm
21:00 -10.2 °C -12.8 °C 33948 hPa South 7.7 km/h 23.3 km/h 73 % 0 mm
21:15 -10.2 °C -12.8 °C 33948 hPa SSW 7.7 km/h 23.3 km/h 74 % 0 mm
21:30 -10.3 °C -12.6 °C 33948 hPa South 5.1 km/h 18.2 km/h 76 % 0 mm
21:45 -10.4 °C -12.6 °C 33948 hPa SSW 2.6 km/h 15.6 km/h 77 % 0 mm
22:00 -10.4 °C -12.5 °C 33948 hPa SSW 5.1 km/h 23.3 km/h 78 % 0 mm
22:15 -10.5 °C -12.6 °C 33937.9 hPa South 2.6 km/h 18.2 km/h 78 % 0 mm
22:30 -10.6 °C -12.6 °C 33937.9 hPa Calm   12.9 km/h 79 % 0 mm
22:45 -10.7 °C -12.4 °C 33937.9 hPa Calm   10.3 km/h 81 % 0 mm
23:00 -10.8 °C -12.6 °C 33937.9 hPa SSW 2.6 km/h 18.2 km/h 81 % 0 mm
23:15 -10.9 °C -12.5 °C 33937.9 hPa Calm   7.7 km/h 83 % 0 mm
23:30 -11.1 °C -12.6 °C 33937.9 hPa Calm   12.9 km/h 84 % 0 mm
23:45 -11.2 °C -12.7 °C 33937.9 hPa SSW 2.6 km/h 12.9 km/h 84 % 0 mm
Esan sääasema
Terveisin Weather Underground - 2.75 mb

Alkuperäinen skripti  Jim McMurry - jmcmurry@mwt.net Sovitettu myös templatelle  Wim van der Kuil - Leuven-Template.eu

Laitteet joita käytämme:

Sääasema
Davis VP2

Sääasemaohjelma
Cumulus

Sääaseman tietokone
Asus EeePC

Palveluntarjoaja
Suncomet

Davis VP2

Cumulus

Asus EeePC

Suncomet